Time;durP1;ratioP1;P1;durP2;ratioP2;P2;SDS_P1;SDS_P2;PMS_P1;PMS_P2;Temp;Humidity;BMP_temperature;BMP_pressure;BME280_temperature;BME280_humidity;BME280_pressure;Samples;Min_cycle;Max_cycle;Signal;HPM_P1;HPM_P2
2022/01/16 00:07:55;;;;;;;118.25;29.40;;;;;;;1.67;70.04;100700.97;10471418;28;20044;-63
2022/01/16 00:13:02;;;;;;;51.58;23.27;;;;;;;1.70;70.25;100719.00;10471682;28;20056;-63
2022/01/16 00:23:09;;;;;;;80.03;25.38;;;;;;;2.07;69.93;100740.03;10470322;28;20045;-63
2022/01/16 00:28:10;;;;;;;98.55;27.33;;;;;;;2.10;69.58;100719.34;10451900;28;20495;-64
2022/01/16 00:33:13;;;;;;;66.57;23.23;;;;;;;2.06;69.46;100703.06;10452218;28;20245;-63
2022/01/16 00:38:14;;;;;;;48.28;20.95;;;;;;;2.12;69.27;100676.31;10469969;28;20044;-63
2022/01/16 00:43:16;;;;;;;103.43;26.55;;;;;;;2.04;69.42;100688.47;10470088;28;20057;-63
2022/01/16 00:48:18;;;;;;;58.28;22.67;;;;;;;2.07;69.66;100680.72;10469157;28;20403;-63
2022/01/16 00:53:20;;;;;;;47.78;21.77;;;;;;;2.15;69.55;100694.34;10468403;28;20257;-63
2022/01/16 00:58:21;;;;;;;54.80;22.92;;;;;;;2.23;69.37;100661.56;10468368;28;20055;-63
2022/01/16 01:03:25;;;;;;;44.63;20.25;;;;;;;2.26;69.10;100676.97;10468749;28;20147;-63
2022/01/16 01:08:28;;;;;;;37.28;20.15;;;;;;;2.20;69.19;100672.75;10469352;28;20398;-63
2022/01/16 01:13:33;;;;;;;42.20;22.90;;;;;;;2.33;69.16;100655.38;10469214;28;20056;-63
2022/01/16 01:18:35;;;;;;;28.95;17.73;;;;;;;2.42;68.67;100673.28;10450606;28;20063;-63
2022/01/16 01:23:37;;;;;;;46.92;21.15;;;;;;;2.31;68.99;100685.53;10468090;28;20066;-63
2022/01/16 01:28:38;;;;;;;36.63;19.67;;;;;;;2.30;68.91;100683.81;10468077;28;20148;-63
2022/01/16 01:33:40;;;;;;;44.97;21.92;;;;;;;2.26;69.28;100599.56;10467698;28;20063;-63
2022/01/16 01:38:42;;;;;;;37.05;20.98;;;;;;;2.33;69.08;100610.66;10466853;28;20135;-63
2022/01/16 01:54:23;;;;;;;39.83;20.73;;;;;;;2.54;68.65;100667.94;10395979;28;20139;-63
2022/01/16 01:59:25;;;;;;;53.15;22.10;;;;;;;2.57;68.57;100683.41;10466528;28;20060;-63
2022/01/16 02:04:27;;;;;;;37.80;19.83;;;;;;;2.57;68.33;100685.13;10467050;28;20412;-63
2022/01/16 02:09:31;;;;;;;44.17;20.95;;;;;;;2.54;68.50;100660.19;10467106;28;20439;-63
2022/01/16 02:14:53;;;;;;;37.03;19.50;;;;;;;2.52;68.72;100680.03;10467157;28;20056;-63
2022/01/16 02:36:03;;;;;;;21.20;12.67;;;;;;;1.96;68.99;100687.72;10465836;28;20052;-63
2022/01/16 02:41:05;;;;;;;17.50;11.23;;;;;;;1.97;69.02;100673.97;10448148;28;20059;-62
2022/01/16 02:51:20;;;;;;;18.85;12.02;;;;;;;2.09;68.92;100677.22;10470640;28;20056;-63
2022/01/16 02:56:23;;;;;;;17.73;11.25;;;;;;;2.03;68.57;100664.38;10456149;28;20577;-62
2022/01/16 03:01:25;;;;;;;17.42;10.77;;;;;;;1.91;68.78;100666.31;10474916;28;20048;-63
2022/01/16 03:06:28;;;;;;;15.07;10.00;;;;;;;1.69;69.10;100665.69;10480963;28;20052;-63
2022/01/16 03:11:41;;;;;;;16.52;10.57;;;;;;;1.79;69.03;100658.69;10480414;28;20066;-63
2022/01/16 03:16:47;;;;;;;21.33;12.45;;;;;;;1.79;69.00;100663.84;10480501;28;20928;-63
2022/01/16 03:21:55;;;;;;;18.75;11.95;;;;;;;1.80;68.93;100665.56;10480312;28;20527;-63
2022/01/16 03:26:59;;;;;;;22.38;13.15;;;;;;;1.79;68.92;100664.72;10480477;28;20497;-63
2022/01/16 03:32:05;;;;;;;24.02;14.10;;;;;;;1.85;68.58;100637.97;10480303;28;20504;-63
2022/01/16 03:37:07;;;;;;;21.88;12.75;;;;;;;1.86;68.49;100650.03;10479560;28;20102;-62
2022/01/16 03:42:09;;;;;;;17.48;11.30;;;;;;;1.91;68.37;100640.50;10478540;28;20139;-63
2022/01/16 03:47:11;;;;;;;19.00;11.57;;;;;;;1.88;68.16;100637.97;10460337;28;20797;-63
2022/01/16 03:52:13;;;;;;;12.93;9.05;;;;;;;1.63;68.71;100627.09;10475590;28;20052;-63
2022/01/16 03:57:15;;;;;;;13.23;8.27;;;;;;;1.66;68.65;100618.50;10453264;28;21105;-63
2022/01/16 04:02:17;;;;;;;15.93;10.20;;;;;;;1.88;68.32;100617.31;10465205;28;20214;-63
2022/01/16 04:07:26;;;;;;;16.48;10.57;;;;;;;1.95;68.28;100617.22;10472003;28;20052;-62
2022/01/16 04:12:28;;;;;;;13.52;9.57;;;;;;;2.11;67.93;100590.31;10459354;28;20550;-63
2022/01/16 04:17:30;;;;;;;13.85;9.45;;;;;;;2.05;67.74;100579.25;10464676;28;20420;-63
2022/01/16 04:22:32;;;;;;;12.13;8.45;;;;;;;1.98;67.54;100587.94;10470528;28;20500;-63
2022/01/16 04:27:33;;;;;;;13.32;8.35;;;;;;;1.99;67.38;100584.50;10470228;28;20523;-63
2022/01/16 04:32:35;;;;;;;11.13;7.78;;;;;;;1.80;67.38;100589.06;10470806;28;20056;-63
2022/01/16 04:37:38;;;;;;;13.27;8.82;;;;;;;1.85;67.40;100599.31;10470217;28;20408;-62
2022/01/16 04:48:19;;;;;;;10.43;6.25;;;;;;;1.86;66.98;100619.06;10469733;28;20129;-63
2022/01/16 04:53:21;;;;;;;8.60;6.30;;;;;;;1.84;66.61;100633.72;10469199;28;20060;-63
2022/01/16 04:58:23;;;;;;;9.30;6.90;;;;;;;1.76;66.72;100635.53;10469419;28;20052;-63
2022/01/16 05:03:28;;;;;;;8.98;6.38;;;;;;;1.67;66.69;100631.34;10469362;28;20231;-62
2022/01/16 05:08:30;;;;;;;10.55;6.97;;;;;;;1.67;66.95;100627.91;10451364;28;20143;-63
2022/01/16 05:18:41;;;;;;;11.25;7.45;;;;;;;1.53;67.38;100637.53;10468954;28;20048;-63
2022/01/16 05:23:43;;;;;;;12.55;8.85;;;;;;;1.50;67.69;100645.31;10468817;28;20052;-63
2022/01/16 05:28:45;;;;;;;13.55;9.60;;;;;;;1.57;67.52;100652.09;10469014;28;20049;-63
2022/01/16 05:33:47;;;;;;;16.98;10.23;;;;;;;1.61;68.00;100646.91;10450405;28;20051;-63
2022/01/16 05:38:50;;;;;;;15.18;10.05;;;;;;;1.65;67.66;100619.34;10468569;28;20054;-63
2022/01/16 05:43:52;;;;;;;17.95;12.50;;;;;;;1.62;67.91;100614.25;10468250;28;20052;-63
2022/01/16 05:48:54;;;;;;;18.50;12.27;;;;;;;1.70;67.94;100625.31;10450467;28;20052;-63
2022/01/16 05:53:57;;;;;;;17.05;11.77;;;;;;;1.76;67.93;100622.66;10449903;28;20496;-63
2022/01/16 05:58:58;;;;;;;19.10;12.30;;;;;;;1.84;68.00;100633.72;10468129;28;20139;-63
2022/01/16 06:04:00;;;;;;;15.70;11.85;;;;;;;1.79;68.05;100644.09;10467532;28;20427;-63
2022/01/16 06:09:02;;;;;;;16.42;12.27;;;;;;;1.67;68.35;100649.41;10465971;28;20491;-63
2022/01/16 06:14:04;;;;;;;22.05;13.80;;;;;;;1.63;68.45;100641.72;10467641;28;20331;-62
2022/01/16 06:19:06;;;;;;;23.67;14.23;;;;;;;1.49;68.83;100630.72;10466910;28;20140;-63
2022/01/16 06:24:07;;;;;;;20.33;13.63;;;;;;;1.51;68.90;100636.72;10468466;28;20424;-62
2022/01/16 06:29:09;;;;;;;24.15;15.35;;;;;;;1.46;68.86;100661.69;10474912;28;20143;-63
2022/01/16 06:34:11;;;;;;;23.20;15.23;;;;;;;1.43;69.01;100670.31;10474698;28;20048;-62
2022/01/16 06:39:13;;;;;;;24.38;15.73;;;;;;;1.41;68.91;100673.75;10475111;28;20275;-62
2022/01/16 06:44:15;;;;;;;23.63;16.02;;;;;;;1.46;68.87;100679.75;10474722;28;20312;-62
2022/01/16 06:49:17;;;;;;;24.40;17.10;;;;;;;1.49;68.71;100680.56;10474577;28;20271;-62
2022/01/16 06:54:19;;;;;;;25.48;16.75;;;;;;;1.56;68.53;100686.50;10475180;28;20052;-62
2022/01/16 06:59:20;;;;;;;25.60;16.95;;;;;;;1.55;68.58;100695.09;10474213;28;20486;-62
2022/01/16 07:04:23;;;;;;;28.58;17.98;;;;;;;1.52;68.28;100697.72;10473597;28;20068;-62
2022/01/16 07:09:25;;;;;;;31.33;19.05;;;;;;;1.63;68.10;100696.72;10473472;28;20080;-62
2022/01/16 07:14:27;;;;;;;28.55;18.92;;;;;;;1.62;68.06;100713.06;10473891;28;20048;-62
2022/01/16 07:19:28;;;;;;;33.83;20.52;;;;;;;1.64;68.20;100728.50;10473538;28;20679;-62
2022/01/16 07:24:30;;;;;;;31.52;19.13;;;;;;;1.71;68.10;100731.00;10473351;28;20083;-62
2022/01/16 07:29:32;;;;;;;33.15;20.48;;;;;;;1.84;67.73;100734.28;10473506;28;20048;-62
2022/01/16 07:34:34;;;;;;;36.67;21.70;;;;;;;1.71;68.08;100733.56;10473269;28;20605;-62
2022/01/16 07:39:37;;;;;;;40.95;23.90;;;;;;;1.52;68.57;100767.31;10472914;28;20477;-62
2022/01/16 07:44:39;;;;;;;41.70;23.05;;;;;;;1.43;68.82;100762.22;10454976;28;20121;-62
2022/01/16 07:49:41;;;;;;;40.03;23.50;;;;;;;1.36;69.06;100772.59;10472450;28;20056;-62
2022/01/16 07:54:42;;;;;;;43.83;23.20;;;;;;;1.35;69.18;100760.59;10471823;28;20044;-62
2022/01/16 07:59:44;;;;;;;38.55;22.73;;;;;;;1.44;68.96;100753.66;10471461;28;20455;-62
2022/01/16 08:04:46;;;;;;;43.35;25.33;;;;;;;1.49;68.72;100757.00;10471670;28;20143;-62
2022/01/16 08:09:48;;;;;;;38.05;22.92;;;;;;;1.50;68.55;100758.75;10471281;28;20424;-62
2022/01/16 08:14:50;;;;;;;38.97;23.30;;;;;;;1.51;68.48;100750.13;10471125;28;20146;-62
2022/01/16 08:19:52;;;;;;;38.95;23.15;;;;;;;1.61;67.96;100749.16;10471548;28;20147;-62
2022/01/16 08:24:54;;;;;;;42.63;22.70;;;;;;;1.71;67.81;100737.88;10470972;28;20056;-61
2022/01/16 08:29:55;;;;;;;40.45;23.65;;;;;;;1.71;67.80;100737.88;10470518;28;20049;-62
2022/01/16 08:34:57;;;;;;;37.10;22.45;;;;;;;1.91;67.52;100725.63;10470040;28;20088;-62
2022/01/16 08:39:59;;;;;;;38.17;22.13;;;;;;;2.02;67.23;100726.34;10469983;28;20075;-62
2022/01/16 08:45:01;;;;;;;37.78;22.10;;;;;;;2.07;66.82;100734.88;10471129;28;20060;-62
2022/01/16 08:50:04;;;;;;;36.85;22.77;;;;;;;2.07;66.57;100727.16;10469653;28;20153;-62
2022/01/16 08:55:08;;;;;;;38.08;21.85;;;;;;;1.99;66.62;100740.13;10468771;28;20067;-62
2022/01/16 09:00:10;;;;;;;37.50;22.50;;;;;;;1.95;66.74;100748.75;10469005;28;20056;-62
2022/01/16 09:05:12;;;;;;;38.35;22.52;;;;;;;1.88;66.67;100759.19;10451611;28;20056;-62
2022/01/16 09:10:14;;;;;;;39.33;22.13;;;;;;;1.84;66.52;100754.94;10468787;28;20178;-62
2022/01/16 09:15:16;;;;;;;44.13;23.90;;;;;;;1.80;66.81;100763.56;10469018;28;20118;-62
2022/01/16 09:20:17;;;;;;;36.45;21.52;;;;;;;1.83;66.80;100773.84;10468861;28;20062;-62
2022/01/16 09:25:20;;;;;;;41.20;22.67;;;;;;;1.91;66.74;100780.63;10468487;28;20110;-62
2022/01/16 09:30:23;;;;;;;42.35;23.40;;;;;;;2.06;66.43;100777.88;10468286;28;20048;-62
2022/01/16 09:35:25;;;;;;;47.70;27.88;;;;;;;2.31;66.08;100799.09;10468202;28;20499;-62
2022/01/16 09:40:27;;;;;;;41.15;24.30;;;;;;;2.31;65.89;100793.94;10450399;28;20052;-62
2022/01/16 09:45:30;;;;;;;42.50;23.92;;;;;;;2.10;66.19;100805.34;10467941;28;20167;-61
2022/01/16 09:50:32;;;;;;;44.55;24.90;;;;;;;1.98;66.56;100810.66;10467760;28;20056;-62
2022/01/16 09:55:34;;;;;;;44.85;24.55;;;;;;;1.94;67.04;100828.75;10467251;28;20053;-61
2022/01/16 10:00:36;;;;;;;47.53;25.13;;;;;;;1.88;67.33;100827.09;10466691;28;20140;-62
2022/01/16 10:05:39;;;;;;;47.95;24.92;;;;;;;1.99;67.28;100827.81;10467533;28;20044;-62
2022/01/16 10:10:43;;;;;;;48.72;25.17;;;;;;;1.98;67.24;100840.75;10466590;28;20052;-62
2022/01/16 10:15:53;;;;;;;48.35;25.60;;;;;;;1.91;68.11;100837.38;10467475;28;20051;-62
2022/01/16 10:20:54;;;;;;;45.25;24.00;;;;;;;1.80;68.41;100826.31;10467568;28;20052;-62
2022/01/16 10:25:56;;;;;;;50.72;25.55;;;;;;;2.01;68.08;100817.50;10466890;28;20084;-62
2022/01/16 10:30:58;;;;;;;44.40;24.65;;;;;;;2.09;68.11;100820.88;10449188;28;20500;-62
2022/01/16 10:36:00;;;;;;;46.20;24.88;;;;;;;2.14;68.25;100817.34;10466573;28;20171;-62
2022/01/16 10:41:02;;;;;;;48.97;24.60;;;;;;;2.16;68.16;100822.47;10447942;28;20486;-61
2022/01/16 10:46:04;;;;;;;45.22;24.70;;;;;;;2.38;68.00;100816.19;10463808;28;20207;-61
2022/01/16 10:51:26;;;;;;;43.03;23.38;;;;;;;2.63;67.34;100819.31;10465801;28;20045;-61
2022/01/16 10:56:29;;;;;;;41.97;23.55;;;;;;;2.85;67.04;100808.66;10466574;28;20055;-61
2022/01/16 11:01:31;;;;;;;41.40;22.58;;;;;;;3.06;66.68;100815.25;10463607;28;20310;-61
2022/01/16 11:06:33;;;;;;;41.65;22.85;;;;;;;3.08;66.36;100816.06;10431696;28;20056;-61
2022/01/16 11:11:35;;;;;;;37.22;21.27;;;;;;;3.02;66.40;100829.09;10465305;28;20059;-61
2022/01/16 11:16:38;;;;;;;41.30;22.92;;;;;;;2.96;66.46;100826.59;10455867;28;20044;-61
2022/01/16 11:21:43;;;;;;;37.10;21.42;;;;;;;2.97;66.42;100812.78;10471185;28;20425;-61
2022/01/16 11:26:46;;;;;;;39.83;22.35;;;;;;;3.05;66.17;100816.97;10455335;28;20424;-61
2022/01/16 11:31:49;;;;;;;37.22;21.92;;;;;;;3.08;66.07;100816.06;10455170;28;20114;-62
2022/01/16 11:36:53;;;;;;;35.33;20.73;;;;;;;3.15;65.84;100816.84;10473250;28;20535;-62
2022/01/16 11:41:57;;;;;;;37.58;21.40;;;;;;;3.34;65.60;100807.91;10472295;28;20062;-62
2022/01/16 11:47:03;;;;;;;37.50;20.88;;;;;;;3.52;65.05;100802.41;10472515;28;20052;-62
2022/01/16 11:52:12;;;;;;;39.75;23.33;;;;;;;3.80;64.28;100788.13;10472144;28;20152;-62
2022/01/16 11:57:19;;;;;;;36.13;21.52;;;;;;;3.93;64.08;100807.75;10454023;28;20139;-61
2022/01/16 12:02:24;;;;;;;38.65;22.10;;;;;;;4.21;63.83;100808.91;10471682;28;20147;-64
2022/01/16 12:07:35;;;;;;;31.88;19.23;;;;;;;4.08;62.77;100815.22;10470858;28;20171;-64
2022/01/16 12:12:40;;;;;;;33.72;19.52;;;;;;;4.19;63.50;100805.50;10471598;28;20052;-61
2022/01/16 12:17:44;;;;;;;32.50;18.17;;;;;;;4.12;63.42;100816.00;10470778;28;20411;-64
2022/01/16 12:22:48;;;;;;;34.08;19.35;;;;;;;3.99;63.35;100815.38;10469343;28;20143;-62
2022/01/16 12:28:14;;;;;;;30.42;18.13;;;;;;;4.01;63.61;100823.97;10470238;28;20044;-62
2022/01/16 12:33:15;;;;;;;30.67;17.52;;;;;;;4.16;63.18;100812.47;10470604;28;20057;-61
2022/01/16 12:38:31;;;;;;;33.22;19.05;;;;;;;4.39;61.96;100805.94;10469697;28;20055;-62
2022/01/16 12:43:47;;;;;;;29.92;18.10;;;;;;;4.46;62.76;100802.34;10469947;28;20053;-62
2022/01/16 12:48:51;;;;;;;28.70;17.42;;;;;;;4.54;62.74;100810.81;10469395;28;20044;-62
2022/01/16 12:54:05;;;;;;;33.65;19.02;;;;;;;4.22;63.21;100810.63;10468360;28;20048;-62
2022/01/16 12:59:11;;;;;;;31.80;18.15;;;;;;;4.02;63.97;100817.94;10469022;28;20481;-62
2022/01/16 13:04:27;;;;;;;32.80;18.25;;;;;;;3.76;65.03;100802.00;10468467;28;20143;-62
2022/01/16 13:09:29;;;;;;;32.42;18.88;;;;;;;3.68;65.21;100793.53;10468631;28;20048;-62
2022/01/16 13:14:34;;;;;;;29.27;17.70;;;;;;;3.58;65.57;100795.41;10451774;28;20052;-62
2022/01/16 13:19:54;;;;;;;32.97;18.20;;;;;;;3.54;65.71;100803.25;10451069;28;20334;-62
2022/01/16 13:25:05;;;;;;;29.37;17.77;;;;;;;3.22;66.57;100815.84;10467618;28;20076;-62
2022/01/16 13:30:24;;;;;;;33.00;17.77;;;;;;;3.16;66.67;100821.97;10467438;28;20478;-62
2022/01/16 13:35:28;;;;;;;28.92;16.73;;;;;;;2.96;66.73;100827.47;10468046;28;20088;-62
2022/01/16 13:40:30;;;;;;;27.08;16.23;;;;;;;2.78;67.24;100827.72;10466655;28;20101;-62
2022/01/16 13:45:40;;;;;;;26.42;16.58;;;;;;;3.01;66.40;100838.56;10468462;28;20049;-62
2022/01/16 13:51:02;;;;;;;29.53;17.60;;;;;;;2.76;66.25;100839.81;10467329;28;20177;-62
2022/01/16 13:56:14;;;;;;;31.70;19.45;;;;;;;3.15;66.16;100832.34;10449773;28;20290;-62
2022/01/16 14:01:27;;;;;;;29.85;18.98;;;;;;;3.09;65.75;100848.78;10466824;28;20060;-62
2022/01/16 14:06:45;;;;;;;31.45;19.63;;;;;;;3.12;65.98;100847.88;10467112;28;20087;-63
2022/01/16 14:11:49;;;;;;;32.95;19.58;;;;;;;2.85;66.67;100865.50;10466309;28;20056;-62
2022/01/16 14:22:10;;;;;;;38.92;22.35;;;;;;;2.71;66.88;100867.41;10466162;28;20056;-62
2022/01/16 14:27:20;;;;;;;35.42;20.55;;;;;;;2.60;67.14;100874.44;10466107;28;20544;-62
2022/01/16 14:32:23;;;;;;;37.33;20.52;;;;;;;2.59;67.23;100887.38;10466804;28;20049;-62
2022/01/16 14:37:27;;;;;;;33.00;19.73;;;;;;;2.52;67.48;100886.56;10448634;28;20056;-62
2022/01/16 14:42:39;;;;;;;31.70;19.30;;;;;;;2.48;67.68;100884.91;10466889;28;20132;-62
2022/01/16 14:47:41;;;;;;;35.30;20.83;;;;;;;2.62;67.37;100888.16;10471914;28;20048;-62
2022/01/16 14:52:42;;;;;;;35.95;21.17;;;;;;;2.63;67.38;100889.91;10474226;28;20567;-62
2022/01/16 14:57:44;;;;;;;36.97;21.17;;;;;;;2.49;67.57;100888.34;10474745;28;20088;-62
2022/01/16 15:02:46;;;;;;;36.83;20.67;;;;;;;2.67;67.36;100904.47;10473199;28;20118;-62
2022/01/16 15:07:48;;;;;;;38.35;21.27;;;;;;;2.69;67.27;100909.63;10473321;28;20134;-62
2022/01/16 15:12:50;;;;;;;36.60;20.73;;;;;;;2.64;67.37;100912.25;10473637;28;20291;-62
2022/01/16 15:17:56;;;;;;;35.80;20.50;;;;;;;2.66;67.44;100917.41;10473138;28;20056;-62
2022/01/16 15:22:59;;;;;;;34.72;19.77;;;;;;;2.55;67.50;100921.84;10472526;28;20493;-62
2022/01/16 15:28:01;;;;;;;33.90;18.67;;;;;;;2.61;67.38;100932.97;10472161;28;20048;-62
2022/01/16 15:33:03;;;;;;;35.30;20.15;;;;;;;2.53;67.70;100933.91;10472323;28;20455;-62
2022/01/16 15:38:05;;;;;;;29.45;17.20;;;;;;;2.46;67.85;100943.44;10472018;28;20501;-62
2022/01/16 15:43:08;;;;;;;34.47;19.42;;;;;;;2.58;67.58;100943.31;10472558;28;20159;-62
2022/01/16 15:48:10;;;;;;;34.05;18.20;;;;;;;2.56;67.57;100933.91;10471797;28;20048;-62
2022/01/16 15:53:11;;;;;;;30.50;17.95;;;;;;;2.31;67.92;100940.19;10471121;28;20064;-62
2022/01/16 15:58:14;;;;;;;31.65;17.65;;;;;;;2.13;68.36;100947.22;10469192;28;20078;-62
2022/01/16 16:03:16;;;;;;;31.98;18.98;;;;;;;2.06;68.59;100966.22;10471587;28;20113;-62
2022/01/16 16:08:18;;;;;;;29.05;17.98;;;;;;;2.13;68.62;100977.34;10471461;28;20049;-62
2022/01/16 16:13:21;;;;;;;30.52;18.70;;;;;;;2.25;68.47;100990.16;10471416;28;20564;-62
2022/01/16 16:18:22;;;;;;;29.17;18.13;;;;;;;2.26;68.40;100998.72;10469380;28;20139;-62
2022/01/16 16:23:24;;;;;;;32.08;19.50;;;;;;;2.37;68.33;100990.03;10469966;28;20135;-62
2022/01/16 16:28:26;;;;;;;25.45;15.75;;;;;;;2.22;68.42;101000.47;10470319;28;20488;-62
2022/01/16 16:33:28;;;;;;;24.23;14.90;;;;;;;2.42;67.96;101006.31;10451415;28;20494;-62
2022/01/16 16:38:30;;;;;;;25.20;15.52;;;;;;;2.47;67.90;100995.94;10470688;28;20053;-62
2022/01/16 16:43:32;;;;;;;22.10;15.30;;;;;;;2.49;67.83;101012.28;10469356;28;20291;-62
2022/01/16 16:48:34;;;;;;;22.17;14.30;;;;;;;2.60;67.64;101023.38;10469305;28;20056;-62
2022/01/16 16:53:37;;;;;;;22.27;13.65;;;;;;;2.63;67.42;101023.31;10469197;28;20087;-62
2022/01/16 16:58:44;;;;;;;23.13;14.90;;;;;;;2.79;67.14;101038.66;10468636;28;20059;-62
2022/01/16 17:03:46;;;;;;;22.77;14.35;;;;;;;2.71;67.37;101043.03;10468241;28;20067;-62
2022/01/16 17:08:51;;;;;;;23.42;14.35;;;;;;;2.65;67.33;101043.09;10468493;28;20325;-62
2022/01/16 17:13:54;;;;;;;22.92;14.35;;;;;;;2.63;67.64;101039.69;10468860;28;20063;-62
2022/01/16 17:19:03;;;;;;;23.05;14.88;;;;;;;2.65;67.64;101043.09;10468274;28;20045;-62
2022/01/16 17:24:05;;;;;;;22.02;14.63;;;;;;;2.56;68.01;101027.69;10469560;28;20082;-62
2022/01/16 17:29:07;;;;;;;25.50;15.55;;;;;;;2.52;68.34;101027.75;10468807;28;20056;-62
2022/01/16 17:34:08;;;;;;;26.65;15.43;;;;;;;2.56;68.51;101032.84;10450410;28;20148;-62
2022/01/16 17:39:11;;;;;;;23.73;15.32;;;;;;;2.57;68.53;101042.31;10468669;28;20519;-62
2022/01/16 17:44:14;;;;;;;27.48;18.27;;;;;;;2.68;68.39;101043.06;10467745;28;20080;-63
2022/01/16 17:49:15;;;;;;;28.70;17.38;;;;;;;2.55;68.47;101036.31;10467634;28;20496;-63
2022/01/16 17:54:17;;;;;;;25.55;16.35;;;;;;;2.47;68.62;101026.94;10467805;28;20056;-63
2022/01/16 17:59:39;;;;;;;;;;;;;;;2.25;69.25;101021.13;10465305;28;20059;-63
2022/01/16 18:04:40;;;;;;;24.83;16.17;;;;;;;2.48;68.72;101036.41;10468874;28;19924;-63
2022/01/16 18:09:42;;;;;;;22.92;15.15;;;;;;;2.46;68.69;101033.81;10467884;28;20436;-63
2022/01/16 18:14:46;;;;;;;24.52;16.95;;;;;;;2.41;68.90;101048.50;10467616;28;20148;-63
2022/01/16 18:19:48;;;;;;;28.42;17.63;;;;;;;2.42;69.05;101063.09;10467985;28;20131;-63
2022/01/16 18:24:49;;;;;;;30.20;18.75;;;;;;;2.44;68.83;101066.53;10476448;28;20538;-63
2022/01/16 18:29:51;;;;;;;24.90;16.05;;;;;;;2.53;68.71;101073.34;10475463;28;20061;-63
2022/01/16 18:34:53;;;;;;;25.30;17.10;;;;;;;2.62;68.35;101091.34;10475208;28;20147;-63
2022/01/16 18:39:55;;;;;;;23.40;15.82;;;;;;;2.61;68.54;101095.66;10475239;28;20240;-63
2022/01/16 18:45:03;;;;;;;25.23;15.80;;;;;;;2.53;68.78;101100.03;10474646;28;20139;-62
2022/01/16 18:50:11;;;;;;;24.23;15.93;;;;;;;2.58;68.50;101094.84;10475142;28;20128;-63
2022/01/16 18:55:13;;;;;;;24.48;15.40;;;;;;;2.63;68.67;101090.47;10457604;28;20132;-63
2022/01/16 19:00:16;;;;;;;23.92;15.90;;;;;;;2.58;68.69;101059.50;10474060;28;20151;-63
2022/01/16 19:05:18;;;;;;;26.50;16.73;;;;;;;2.59;68.66;101038.00;10474076;28;20485;-63
2022/01/16 19:10:20;;;;;;;24.88;16.60;;;;;;;2.68;68.67;101101.63;10473575;28;20041;-63
2022/01/16 19:15:22;;;;;;;24.27;16.08;;;;;;;2.71;68.41;101130.84;10455845;28;20074;-63
2022/01/16 19:20:24;;;;;;;25.85;16.38;;;;;;;2.70;68.62;101136.88;10473830;28;20335;-63
2022/01/16 19:25:26;;;;;;;24.05;15.57;;;;;;;2.66;68.48;101119.69;10455074;28;20130;-63
2022/01/16 19:30:29;;;;;;;23.95;15.00;;;;;;;2.62;68.79;101119.75;10473093;28;20484;-63
2022/01/16 19:35:32;;;;;;;24.30;15.10;;;;;;;2.73;68.45;101116.22;10473165;28;20074;-63
2022/01/16 19:40:34;;;;;;;23.70;15.35;;;;;;;2.66;68.43;101114.53;10472876;28;20049;-63
2022/01/16 19:45:41;;;;;;;22.98;15.07;;;;;;;2.69;68.48;101122.28;10472182;28;20092;-63
2022/01/16 19:50:44;;;;;;;25.08;16.40;;;;;;;2.64;68.56;101124.03;10473379;28;20053;-63
2022/01/16 19:55:47;;;;;;;22.75;15.45;;;;;;;2.72;68.28;101122.25;10472704;28;20224;-63
2022/01/16 20:00:50;;;;;;;24.05;16.35;;;;;;;2.66;68.46;101124.88;10472029;28;20438;-63
2022/01/16 20:05:54;;;;;;;22.55;14.80;;;;;;;2.62;68.41;101137.84;10471518;28;20057;-63
2022/01/16 20:10:56;;;;;;;22.23;15.52;;;;;;;2.57;68.49;101139.59;10454476;28;20092;-63
2022/01/16 20:15:58;;;;;;;20.90;14.00;;;;;;;2.68;68.40;101140.38;10470274;28;20060;-63
2022/01/16 20:21:00;;;;;;;21.55;14.85;;;;;;;2.80;67.99;101143.72;10470950;28;20059;-63
2022/01/16 20:26:02;;;;;;;22.88;15.38;;;;;;;2.78;68.04;101142.88;10470405;28;20062;-63
2022/01/16 20:31:03;;;;;;;23.67;16.30;;;;;;;2.78;68.28;101155.78;10470123;28;20052;-62
2022/01/16 20:36:05;;;;;;;20.50;14.20;;;;;;;2.62;68.36;101156.75;10470228;28;20141;-63
2022/01/16 20:41:07;;;;;;;21.50;14.65;;;;;;;2.71;68.34;101156.69;10469582;28;20139;-63
2022/01/16 20:46:09;;;;;;;22.73;15.75;;;;;;;2.87;67.91;101137.59;10468703;28;20087;-63
2022/01/16 20:51:11;;;;;;;21.33;15.43;;;;;;;2.87;67.99;101152.22;10469902;28;20055;-63
2022/01/16 20:56:14;;;;;;;23.15;15.25;;;;;;;2.75;68.00;101154.94;10468711;28;20064;-63
2022/01/16 21:01:19;;;;;;;23.75;16.23;;;;;;;2.75;68.46;101162.69;10467663;28;20136;-63
2022/01/16 21:06:23;;;;;;;25.48;17.40;;;;;;;2.73;68.47;101165.28;10450889;28;20048;-63
2022/01/16 21:11:26;;;;;;;23.38;15.50;;;;;;;2.71;68.53;101158.41;10468330;28;20454;-63
2022/01/16 21:16:28;;;;;;;21.65;15.45;;;;;;;2.70;68.67;101167.88;10434092;28;20241;-63
2022/01/16 21:21:29;;;;;;;21.52;15.30;;;;;;;2.74;68.78;101179.06;10450318;28;20496;-64
2022/01/16 21:26:32;;;;;;;20.83;14.15;;;;;;;2.83;68.38;101192.75;10450652;28;20060;-64
2022/01/16 21:31:34;;;;;;;22.27;13.88;;;;;;;2.78;68.51;101183.34;10459564;28;20582;-64
2022/01/16 21:36:40;;;;;;;20.63;14.73;;;;;;;2.88;68.64;101198.75;10465259;28;20474;-64
2022/01/16 21:41:42;;;;;;;19.98;14.35;;;;;;;2.73;68.76;101193.69;10466480;28;20151;-64
2022/01/16 21:46:44;;;;;;;19.25;14.13;;;;;;;2.89;68.29;101197.00;10465952;28;20423;-64
2022/01/16 21:51:49;;;;;;;21.30;13.80;;;;;;;2.84;68.52;101193.63;10467110;28;20166;-64
2022/01/16 21:56:51;;;;;;;19.63;13.60;;;;;;;2.74;68.76;101184.22;10466587;28;20131;-63
2022/01/16 22:01:52;;;;;;;22.40;14.18;;;;;;;2.66;69.19;101189.44;10467116;28;20103;-64
2022/01/16 22:06:54;;;;;;;21.10;14.18;;;;;;;2.64;69.23;101201.50;10467110;28;20084;-64
2022/01/16 22:12:03;;;;;;;19.58;13.73;;;;;;;2.72;68.88;101204.91;10467237;28;20058;-64
2022/01/16 22:17:09;;;;;;;21.08;13.82;;;;;;;2.70;69.04;101224.69;10448459;28;20067;-64
2022/01/16 22:22:11;;;;;;;21.08;13.80;;;;;;;2.64;69.25;101227.31;10466854;28;20440;-63
2022/01/16 22:27:13;;;;;;;20.30;13.68;;;;;;;2.64;69.12;101226.50;10466675;28;20052;-64
2022/01/16 22:32:16;;;;;;;19.63;12.73;;;;;;;2.60;69.27;101223.06;10466001;28;20479;-64
2022/01/16 22:37:23;;;;;;;20.95;13.02;;;;;;;2.70;68.85;101229.03;10466616;28;20052;-64
2022/01/16 22:42:25;;;;;;;19.25;13.05;;;;;;;2.71;68.97;101239.34;10466124;28;20079;-64
2022/01/16 22:47:27;;;;;;;17.85;12.50;;;;;;;2.75;68.84;101230.72;10465626;28;20600;-63
2022/01/16 22:52:28;;;;;;;18.90;12.65;;;;;;;2.80;68.56;101233.25;10466071;28;20174;-64
2022/01/16 22:57:30;;;;;;;17.35;11.77;;;;;;;2.84;68.71;101246.16;10466135;28;20143;-63
2022/01/16 23:02:32;;;;;;;19.52;12.23;;;;;;;2.78;68.78;101251.38;10465693;28;20059;-64
2022/01/16 23:07:36;;;;;;;18.40;12.35;;;;;;;2.82;68.58;101258.22;10468781;28;20496;-63
2022/01/16 23:12:38;;;;;;;17.67;11.75;;;;;;;2.86;68.56;101270.25;10473544;28;20135;-63
2022/01/16 23:17:40;;;;;;;18.17;11.80;;;;;;;2.86;68.56;101259.91;10472427;28;20055;-64
2022/01/16 23:22:42;;;;;;;18.17;11.98;;;;;;;2.80;68.64;101264.25;10473633;28;20159;-64
2022/01/16 23:27:43;;;;;;;17.75;11.68;;;;;;;2.86;68.51;101256.47;10472696;28;20331;-63
2022/01/16 23:32:45;;;;;;;16.95;11.13;;;;;;;2.86;68.44;101254.75;10472656;28;20052;-64
2022/01/16 23:37:47;;;;;;;16.80;11.63;;;;;;;2.87;68.51;101274.53;10472056;28;20056;-64
2022/01/16 23:42:52;;;;;;;17.38;11.63;;;;;;;2.89;68.38;101272.78;10472479;28;20459;-64
2022/01/16 23:47:55;;;;;;;17.23;11.23;;;;;;;2.88;68.52;101290.91;10472800;28;20511;-63
2022/01/16 23:52:58;;;;;;;17.02;11.50;;;;;;;2.86;68.45;101293.50;10472045;28;20397;-64
2022/01/16 23:57:59;;;;;;;17.15;11.90;;;;;;;2.79;68.76;101285.78;10471155;28;20049;-64
